createdAt,value
2023-03-04T00:00:58.999Z,80.77
2023-03-04T00:01:59.019Z,80.88
2023-03-04T00:02:58.996Z,80.88
2023-03-04T00:03:58.972Z,80.88
2023-03-04T00:04:58.913Z,80.98
2023-03-04T00:05:58.970Z,81.09
2023-03-04T00:06:58.945Z,81.19
2023-03-04T00:07:58.927Z,81.49
2023-03-04T00:08:58.892Z,81.49
2023-03-04T00:09:58.885Z,81.49
2023-03-04T00:10:58.874Z,81.81
2023-03-04T00:11:58.865Z,81.91
2023-03-04T00:12:58.856Z,81.91
2023-03-04T00:13:58.832Z,81.91
2023-03-04T00:14:58.803Z,81.81
2023-03-04T00:15:58.987Z,81.60
2023-03-04T00:16:58.821Z,81.29
2023-03-04T00:17:58.814Z,81.29
2023-03-04T00:18:58.763Z,81.19
2023-03-04T00:19:58.758Z,81.29
2023-03-04T00:20:58.784Z,81.19
2023-03-04T00:21:58.742Z,80.98
2023-03-04T00:22:58.734Z,80.67
2023-03-04T00:23:58.717Z,80.67
2023-03-04T00:24:58.709Z,80.46
2023-03-04T00:25:58.710Z,80.36
2023-03-04T00:26:58.721Z,80.26
2023-03-04T00:27:58.664Z,80.26
2023-03-04T00:28:58.657Z,80.15
2023-03-04T00:29:58.665Z,80.26
2023-03-04T00:30:58.696Z,80.36
2023-03-04T00:31:58.735Z,80.46
2023-03-04T00:32:58.627Z,80.46
2023-03-04T00:33:58.620Z,80.46
2023-03-04T00:34:58.599Z,80.46
2023-03-04T00:35:58.653Z,80.57
2023-03-04T00:36:58.701Z,80.67
2023-03-04T00:37:58.566Z,80.67
2023-03-04T00:38:58.546Z,80.67
2023-03-04T00:39:58.536Z,80.77
2023-03-04T00:40:58.540Z,80.77
2023-03-04T00:41:58.547Z,80.77
2023-03-04T00:42:58.495Z,80.67
2023-03-04T00:43:58.522Z,80.57
2023-03-04T00:44:58.484Z,80.46
2023-03-04T00:45:58.507Z,80.15
2023-03-04T00:46:58.494Z,80.05
2023-03-04T00:47:58.434Z,79.84
2023-03-04T00:48:58.429Z,79.84
2023-03-04T00:49:58.423Z,79.74
2023-03-04T00:50:58.435Z,79.74
2023-03-04T00:51:58.392Z,79.53
2023-03-04T00:52:58.402Z,79.53
2023-03-04T00:54:00.696Z,79.53
2023-03-04T00:54:58.382Z,79.74
2023-03-04T00:55:58.367Z,79.74
2023-03-04T00:56:58.346Z,79.84
2023-03-04T00:57:58.324Z,79.74
2023-03-04T00:58:58.312Z,79.84
2023-03-04T00:59:58.318Z,79.94
2023-03-04T01:00:58.366Z,80.05
2023-03-04T01:01:58.300Z,80.15
2023-03-04T01:02:58.263Z,80.15
2023-03-04T01:03:58.254Z,80.36
2023-03-04T01:04:58.342Z,80.46
2023-03-04T01:05:58.282Z,80.46
2023-03-04T01:06:58.238Z,80.57
2023-03-04T01:07:58.207Z,80.57
2023-03-04T01:08:58.177Z,80.57
2023-03-04T01:09:58.186Z,80.57
2023-03-04T01:10:58.239Z,80.46
2023-03-04T01:11:58.187Z,80.46
2023-03-04T01:12:58.186Z,80.46
2023-03-04T01:13:58.152Z,80.57
2023-03-04T01:14:58.116Z,80.57
2023-03-04T01:15:58.159Z,80.36
2023-03-04T01:16:58.246Z,80.46
2023-03-04T01:17:58.159Z,80.46
2023-03-04T01:18:58.138Z,80.46
2023-03-04T01:19:58.093Z,80.46
2023-03-04T01:20:58.095Z,80.46
2023-03-04T01:21:58.104Z,80.67
2023-03-04T01:22:58.038Z,80.57
2023-03-04T01:23:58.028Z,80.57
2023-03-04T01:24:58.029Z,80.57
2023-03-04T01:25:58.049Z,80.67
2023-03-04T01:26:58.043Z,80.67
2023-03-04T01:27:58.038Z,80.67
2023-03-04T01:28:58.001Z,80.88
2023-03-04T01:29:58.529Z,80.98
2023-03-04T01:30:58.070Z,81.09
2023-03-04T01:31:58.009Z,81.19
2023-03-04T01:32:57.963Z,81.19
2023-03-04T01:33:58.860Z,81.19
2023-03-04T01:34:57.927Z,81.29
2023-03-04T01:35:57.909Z,81.19
2023-03-04T01:36:57.886Z,81.19
2023-03-04T01:37:57.900Z,81.19
2023-03-04T01:38:57.934Z,81.39
2023-03-04T01:39:57.940Z,81.29
2023-03-04T01:40:58.511Z,81.29
2023-03-04T01:41:57.864Z,81.19
2023-03-04T01:42:58.391Z,81.39
2023-03-04T01:43:57.808Z,81.54
2023-03-04T01:44:57.824Z,81.74
2023-03-04T01:45:57.873Z,81.95
2023-03-04T01:46:57.795Z,81.95
2023-03-04T01:47:57.832Z,81.95
2023-03-04T01:48:57.832Z,82.05
2023-03-04T01:49:57.813Z,82.15
2023-03-04T01:50:57.785Z,82.26
2023-03-04T01:51:57.714Z,82.36
2023-03-04T01:52:57.683Z,82.36
2023-03-04T01:53:57.702Z,82.57
2023-03-04T01:54:57.741Z,82.57
2023-03-04T01:55:57.740Z,82.78
2023-03-04T01:56:58.540Z,82.78
2023-03-04T01:57:57.634Z,82.78
2023-03-04T01:58:57.634Z,82.88
2023-03-04T01:59:57.622Z,82.78
2023-03-04T02:00:57.668Z,82.88
2023-03-04T02:01:57.682Z,82.98
2023-03-04T02:02:57.584Z,83.09
2023-03-04T02:03:57.645Z,82.98
2023-03-04T02:04:57.605Z,83.09
2023-03-04T02:05:57.646Z,83.09
2023-03-04T02:06:57.595Z,83.09
2023-03-04T02:07:57.560Z,83.09
2023-03-04T02:08:57.544Z,83.29
2023-03-04T02:09:57.508Z,83.29
2023-03-04T02:10:57.552Z,83.09
2023-03-04T02:11:57.499Z,83.09
2023-03-04T02:12:57.479Z,83.09
2023-03-04T02:13:57.473Z,83.09
2023-03-04T02:14:57.463Z,83.19
2023-03-04T02:15:57.511Z,82.88
2023-03-04T02:16:57.474Z,82.57
2023-03-04T02:17:57.434Z,82.46
2023-03-04T02:18:57.412Z,82.36
2023-03-04T02:19:57.413Z,82.15
2023-03-04T02:20:57.478Z,81.84
2023-03-04T02:21:57.377Z,81.60
2023-03-04T02:22:57.385Z,81.29
2023-03-04T02:23:57.373Z,81.29
2023-03-04T02:24:57.361Z,81.29
2023-03-04T02:25:57.347Z,81.19
2023-03-04T02:26:57.338Z,80.98
2023-03-04T02:27:57.314Z,80.98
2023-03-04T02:28:57.340Z,81.09
2023-03-04T02:29:57.311Z,81.09
2023-03-04T02:30:57.370Z,81.09
2023-03-04T02:31:57.318Z,81.29
2023-03-04T02:32:57.245Z,81.29
2023-03-04T02:33:57.286Z,81.29
2023-03-04T02:34:57.227Z,81.49
2023-03-04T02:35:57.302Z,81.49
2023-03-04T02:36:57.229Z,81.49
2023-03-04T02:37:57.197Z,81.60
2023-03-04T02:38:57.203Z,81.70
2023-03-04T02:39:57.238Z,81.70
2023-03-04T02:40:57.208Z,81.81
2023-03-04T02:41:57.174Z,81.91
2023-03-04T02:42:57.133Z,82.22
2023-03-04T02:43:57.153Z,82.22
2023-03-04T02:44:57.109Z,82.53
2023-03-04T02:45:57.145Z,82.64
2023-03-04T02:46:57.167Z,82.88
2023-03-04T02:47:57.119Z,82.98
2023-03-04T02:48:57.070Z,83.19
2023-03-04T02:49:57.079Z,83.40
2023-03-04T02:50:57.094Z,83.50
2023-03-04T02:51:57.065Z,83.71
2023-03-04T02:52:57.023Z,83.81
2023-03-04T02:53:57.078Z,83.91
2023-03-04T02:54:57.031Z,84.12
2023-03-04T02:55:57.038Z,84.12
2023-03-04T02:56:56.981Z,84.22
2023-03-04T02:57:56.986Z,84.12
2023-03-04T02:58:56.967Z,84.01
2023-03-04T02:59:56.937Z,83.81
2023-03-04T03:00:56.975Z,83.61
2023-03-04T03:01:57.995Z,83.50
2023-03-04T03:02:57.039Z,83.09
2023-03-04T03:03:56.905Z,83.09
2023-03-04T03:04:56.899Z,82.98
2023-03-04T03:05:56.911Z,82.98
2023-03-04T03:06:56.864Z,82.98
2023-03-04T03:07:56.889Z,82.98
2023-03-04T03:08:56.849Z,83.09
2023-03-04T03:09:56.861Z,83.09
2023-03-04T03:10:56.846Z,83.09
2023-03-04T03:11:56.841Z,82.98
2023-03-04T03:12:56.800Z,83.09
2023-03-04T03:13:56.790Z,82.98
2023-03-04T03:14:56.899Z,83.19
2023-03-04T03:15:56.862Z,83.19
2023-03-04T03:16:56.817Z,83.29
2023-03-04T03:17:56.792Z,83.40
2023-03-04T03:18:56.754Z,83.50
2023-03-04T03:19:56.757Z,83.50
2023-03-04T03:20:56.752Z,83.40
2023-03-04T03:21:56.718Z,83.29
2023-03-04T03:22:56.697Z,83.29
2023-03-04T03:23:56.676Z,83.29
2023-03-04T03:24:56.674Z,83.19
2023-03-04T03:25:56.714Z,82.88
2023-03-04T03:26:56.651Z,82.57
2023-03-04T03:27:56.661Z,82.36
2023-03-04T03:28:56.634Z,82.15
2023-03-04T03:29:56.633Z,82.05
2023-03-04T03:30:56.628Z,81.84
2023-03-04T03:31:56.735Z,81.74
2023-03-04T03:32:56.622Z,81.84
2023-03-04T03:33:56.573Z,81.84
2023-03-04T03:34:56.573Z,81.74
2023-03-04T03:35:56.698Z,81.74
2023-03-04T03:36:56.561Z,81.84
2023-03-04T03:37:56.526Z,81.74
2023-03-04T03:38:56.501Z,81.54
2023-03-04T03:39:56.499Z,81.43
2023-03-04T03:40:56.513Z,81.23
2023-03-04T03:41:56.476Z,81.23
2023-03-04T03:42:56.520Z,81.23
2023-03-04T03:43:56.442Z,81.23
2023-03-04T03:45:01.004Z,81.29
2023-03-04T03:45:56.544Z,81.23
2023-03-04T03:46:56.495Z,81.33
2023-03-04T03:47:56.434Z,81.29
2023-03-04T03:48:56.441Z,81.29
2023-03-04T03:49:56.395Z,81.33
2023-03-04T03:50:56.384Z,81.43
2023-03-04T03:51:56.392Z,81.43
2023-03-04T03:52:56.402Z,81.43
2023-03-04T03:53:56.347Z,81.43
2023-03-04T03:54:56.301Z,81.43
2023-03-04T03:55:56.311Z,81.54
2023-03-04T03:56:56.337Z,81.43
2023-03-04T03:57:56.315Z,81.54
2023-03-04T03:58:56.334Z,81.43
2023-03-04T03:59:56.277Z,81.02
2023-03-04T04:00:58.333Z,80.81
2023-03-04T04:01:56.289Z,80.91
2023-03-04T04:02:56.247Z,80.91
2023-03-04T04:03:56.259Z,80.81
2023-03-04T04:04:56.225Z,80.81
2023-03-04T04:05:56.196Z,80.81
2023-03-04T04:06:56.201Z,80.98
2023-03-04T04:07:56.152Z,81.12
2023-03-04T04:08:56.183Z,81.12
2023-03-04T04:09:56.534Z,81.33
2023-03-04T04:10:56.129Z,81.43
2023-03-04T04:11:56.133Z,81.64
2023-03-04T04:12:56.121Z,81.74
2023-03-04T04:13:56.087Z,81.74
2023-03-04T04:14:56.137Z,81.95
2023-03-04T04:15:56.147Z,81.95
2023-03-04T04:16:56.097Z,81.84
2023-03-04T04:17:56.066Z,81.95
2023-03-04T04:18:56.065Z,81.95
2023-03-04T04:19:56.041Z,82.05
2023-03-04T04:20:56.537Z,82.05
2023-03-04T04:21:56.020Z,81.95
2023-03-04T04:22:56.008Z,81.74
2023-03-04T04:23:55.972Z,81.64
2023-03-04T04:24:55.977Z,81.64
2023-03-04T04:25:57.046Z,81.54
2023-03-04T04:26:55.953Z,81.43
2023-03-04T04:27:55.980Z,81.43
2023-03-04T04:28:55.973Z,81.54
2023-03-04T04:29:55.940Z,81.43
2023-03-04T04:30:56.531Z,81.54
2023-03-04T04:31:55.924Z,81.64
2023-03-04T04:32:55.900Z,81.64
2023-03-04T04:33:55.861Z,81.64
2023-03-04T04:34:55.876Z,81.74
2023-03-04T04:35:55.904Z,81.74
2023-03-04T04:36:55.877Z,81.84
2023-03-04T04:37:55.826Z,82.05
2023-03-04T04:38:55.919Z,82.26
2023-03-04T04:39:55.836Z,82.26
2023-03-04T04:40:55.798Z,82.26
2023-03-04T04:41:55.834Z,82.36
2023-03-04T04:42:55.823Z,82.46
2023-03-04T04:43:55.770Z,82.36
2023-03-04T04:44:55.759Z,82.36
2023-03-04T04:45:55.743Z,82.26
2023-03-04T04:46:55.742Z,82.26
2023-03-04T04:47:55.761Z,82.36
2023-03-04T04:48:55.705Z,82.26
2023-03-04T04:49:55.717Z,82.36
2023-03-04T04:50:55.693Z,82.36
2023-03-04T04:51:55.689Z,82.36
2023-03-04T04:52:55.664Z,82.36
2023-03-04T04:53:55.673Z,82.36
2023-03-04T04:54:55.646Z,82.36
2023-03-04T04:55:55.652Z,82.36
2023-03-04T04:56:55.639Z,82.36
2023-03-04T04:57:55.638Z,82.57
2023-03-04T04:58:55.613Z,82.57
2023-03-04T04:59:55.590Z,82.67
2023-03-04T05:00:55.592Z,82.78
2023-03-04T05:01:55.570Z,82.78
2023-03-04T05:02:55.579Z,82.78
2023-03-04T05:03:55.585Z,82.67
2023-03-04T05:04:55.610Z,82.88
2023-03-04T05:05:55.543Z,83.09
2023-03-04T05:06:55.502Z,83.19
2023-03-04T05:07:55.549Z,83.29
2023-03-04T05:08:55.518Z,83.40
2023-03-04T05:09:55.530Z,83.40
2023-03-04T05:10:55.557Z,83.50
2023-03-04T05:11:55.456Z,83.61
2023-03-04T05:12:55.512Z,83.81
2023-03-04T05:13:55.463Z,83.81
2023-03-04T05:14:55.441Z,83.81
2023-03-04T05:15:55.479Z,83.81
2023-03-04T05:16:55.434Z,83.81
2023-03-04T05:17:55.410Z,84.01
2023-03-04T05:18:55.438Z,84.12
2023-03-04T05:19:55.390Z,84.12
2023-03-04T05:20:55.397Z,84.22
2023-03-04T05:21:55.407Z,84.33
2023-03-04T05:22:55.363Z,84.22
2023-03-04T05:23:55.318Z,84.22
2023-03-04T05:24:55.392Z,84.22
2023-03-04T05:25:55.303Z,84.27
2023-03-04T05:26:55.312Z,84.47
2023-03-04T05:27:55.279Z,84.43
2023-03-04T05:28:55.283Z,84.43
2023-03-04T05:29:55.252Z,84.58
2023-03-04T05:30:55.314Z,84.68
2023-03-04T05:31:55.274Z,84.68
2023-03-04T05:32:55.990Z,84.68
2023-03-04T05:33:55.241Z,84.78
2023-03-04T05:34:55.186Z,84.68
2023-03-04T05:35:55.287Z,84.68
2023-03-04T05:36:55.182Z,84.74
2023-03-04T05:37:55.160Z,84.74
2023-03-04T05:38:55.191Z,84.74
2023-03-04T05:39:55.168Z,84.64
2023-03-04T05:40:55.102Z,84.53
2023-03-04T05:41:55.133Z,84.64
2023-03-04T05:42:55.138Z,84.74
2023-03-04T05:43:55.112Z,84.64
2023-03-04T05:44:55.129Z,84.95
2023-03-04T05:45:55.085Z,85.09
2023-03-04T05:46:55.301Z,85.30
2023-03-04T05:47:55.032Z,85.40
2023-03-04T05:48:55.029Z,85.61
2023-03-04T05:49:55.045Z,85.61
2023-03-04T05:50:54.995Z,85.82
2023-03-04T05:51:55.012Z,86.02
2023-03-04T05:52:55.018Z,86.23
2023-03-04T05:53:55.022Z,86.33
2023-03-04T05:54:54.951Z,86.54
2023-03-04T05:55:55.015Z,86.75
2023-03-04T05:56:54.935Z,86.96
2023-03-04T05:57:54.936Z,87.06
2023-03-04T05:58:54.962Z,87.16
2023-03-04T05:59:54.927Z,87.16
2023-03-04T06:00:54.916Z,87.16
2023-03-04T06:01:54.924Z,87.37
2023-03-04T06:02:54.905Z,87.47
2023-03-04T06:03:54.947Z,87.47
2023-03-04T06:04:54.874Z,87.47
2023-03-04T06:05:54.838Z,87.78
2023-03-04T06:06:54.842Z,87.78
2023-03-04T06:07:54.852Z,87.68
2023-03-04T06:08:54.820Z,87.78
2023-03-04T06:09:54.836Z,87.78
2023-03-04T06:10:54.825Z,87.78
2023-03-04T06:11:54.784Z,87.78
2023-03-04T06:12:54.849Z,87.88
2023-03-04T06:13:54.799Z,87.88
2023-03-04T06:14:54.776Z,87.99
2023-03-04T06:15:54.846Z,88.09
2023-03-04T06:16:54.766Z,88.09
2023-03-04T06:17:54.713Z,88.09
2023-03-04T06:18:54.723Z,88.09
2023-03-04T06:19:54.722Z,88.13
2023-03-04T06:20:54.705Z,88.09
2023-03-04T06:21:54.690Z,87.99
2023-03-04T06:22:54.666Z,88.09
2023-03-04T06:23:54.636Z,87.99
2023-03-04T06:24:54.666Z,88.09
2023-03-04T06:25:54.670Z,88.03
2023-03-04T06:26:54.621Z,87.99
2023-03-04T06:27:55.305Z,87.88
2023-03-04T06:28:54.591Z,87.78
2023-03-04T06:29:54.577Z,87.68
2023-03-04T06:30:54.727Z,87.57
2023-03-04T06:31:54.568Z,87.57
2023-03-04T06:32:54.543Z,87.47
2023-03-04T06:33:54.521Z,87.27
2023-03-04T06:34:54.503Z,87.16
2023-03-04T06:35:54.612Z,87.27
2023-03-04T06:36:54.490Z,87.27
2023-03-04T06:37:54.492Z,87.16
2023-03-04T06:38:54.489Z,87.16
2023-03-04T06:39:54.452Z,87.16
2023-03-04T06:40:57.205Z,87.06
2023-03-04T06:41:54.437Z,87.27
2023-03-04T06:42:54.417Z,87.27
2023-03-04T06:43:54.402Z,87.27
2023-03-04T06:44:54.410Z,87.37
2023-03-04T06:45:54.423Z,87.47
2023-03-04T06:46:54.420Z,87.47
2023-03-04T06:47:54.367Z,87.57
2023-03-04T06:48:54.354Z,87.57
2023-03-04T06:49:54.365Z,87.37
2023-03-04T06:50:54.389Z,87.47
2023-03-04T06:51:54.304Z,87.27
2023-03-04T06:52:54.312Z,87.16
2023-03-04T06:53:54.314Z,87.16
2023-03-04T06:54:54.300Z,86.96
2023-03-04T06:55:54.291Z,86.85
2023-03-04T06:56:54.250Z,86.85
2023-03-04T06:57:54.279Z,86.85
2023-03-04T06:58:54.255Z,86.75
2023-03-04T06:59:54.263Z,86.75
2023-03-04T07:00:54.288Z,86.65
2023-03-04T07:01:54.187Z,86.65
2023-03-04T07:02:55.279Z,86.85
2023-03-04T07:03:54.310Z,86.91
2023-03-04T07:04:54.165Z,86.71
2023-03-04T07:05:54.140Z,86.71
2023-03-04T07:06:54.125Z,86.71
2023-03-04T07:07:54.254Z,86.81
2023-03-04T07:08:54.814Z,86.81
2023-03-04T07:09:54.184Z,86.81
2023-03-04T07:10:56.897Z,86.91
2023-03-04T07:11:54.071Z,86.81
2023-03-04T07:12:54.053Z,86.91
2023-03-04T07:13:54.059Z,86.91
2023-03-04T07:14:54.157Z,87.12
2023-03-04T07:15:54.030Z,87.12
2023-03-04T07:16:54.051Z,87.02
2023-03-04T07:17:54.018Z,87.02
2023-03-04T07:18:53.988Z,87.12
2023-03-04T07:19:53.979Z,87.02
2023-03-04T07:20:53.990Z,87.02
2023-03-04T07:21:53.956Z,86.91
2023-03-04T07:22:53.937Z,87.02
2023-03-04T07:23:53.936Z,86.91
2023-03-04T07:24:53.915Z,86.98
2023-03-04T07:25:53.929Z,86.88
2023-03-04T07:26:53.938Z,86.88
2023-03-04T07:27:53.891Z,86.77
2023-03-04T07:28:53.875Z,86.77
2023-03-04T07:29:53.864Z,86.77
2023-03-04T07:30:53.861Z,86.77
2023-03-04T07:31:54.074Z,86.77
2023-03-04T07:32:53.826Z,86.88
2023-03-04T07:33:53.836Z,86.88
2023-03-04T07:34:53.809Z,86.67
2023-03-04T07:35:53.827Z,86.73
2023-03-04T07:36:53.785Z,86.73
2023-03-04T07:37:53.963Z,86.63
2023-03-04T07:38:53.755Z,86.42
2023-03-04T07:39:53.758Z,86.42
2023-03-04T07:40:53.736Z,86.52
2023-03-04T07:41:53.748Z,86.42
2023-03-04T07:42:53.758Z,86.52
2023-03-04T07:43:53.711Z,86.52
2023-03-04T07:44:53.701Z,86.63
2023-03-04T07:45:53.686Z,86.73
2023-03-04T07:46:53.694Z,86.73
2023-03-04T07:47:53.661Z,87.04
2023-03-04T07:48:53.678Z,87.25
2023-03-04T07:49:53.644Z,87.46
2023-03-04T07:50:53.627Z,87.97
2023-03-04T07:51:53.618Z,88.39
2023-03-04T07:52:53.606Z,88.94
2023-03-04T07:53:53.612Z,89.15
2023-03-04T07:54:53.607Z,89.46
2023-03-04T07:55:53.570Z,89.56
2023-03-04T07:56:53.558Z,90.08
2023-03-04T07:57:53.560Z,90.70
2023-03-04T07:58:53.556Z,91.11
2023-03-04T07:59:53.577Z,91.53
2023-03-04T08:00:53.517Z,91.74
2023-03-04T08:01:53.509Z,92.05
2023-03-04T08:02:53.498Z,92.25
2023-03-04T08:03:53.520Z,92.46
2023-03-04T08:04:53.468Z,92.46
2023-03-04T08:05:53.506Z,92.57
2023-03-04T08:06:53.441Z,92.87
2023-03-04T08:07:53.436Z,92.77
2023-03-04T08:08:53.426Z,92.77
2023-03-04T08:09:53.419Z,92.97
2023-03-04T08:10:53.398Z,93.18
2023-03-04T08:11:53.428Z,93.29
2023-03-04T08:12:53.385Z,93.60
2023-03-04T08:13:53.369Z,93.49
2023-03-04T08:14:53.356Z,93.70
2023-03-04T08:15:53.357Z,94.01
2023-03-04T08:16:53.328Z,94.26
2023-03-04T08:17:53.352Z,94.47
2023-03-04T08:18:53.305Z,94.68
2023-03-04T08:19:53.295Z,94.78
2023-03-04T08:20:53.287Z,95.09
2023-03-04T08:21:53.278Z,95.19
2023-03-04T08:22:53.262Z,95.09
2023-03-04T08:23:53.425Z,95.29
2023-03-04T08:24:53.236Z,95.19
2023-03-04T08:25:53.236Z,95.40
2023-03-04T08:26:53.214Z,95.50
2023-03-04T08:27:53.214Z,95.71
2023-03-04T08:28:53.224Z,95.46
2023-03-04T08:29:53.193Z,95.36
2023-03-04T08:30:53.273Z,95.04
2023-03-04T08:31:53.383Z,95.04
2023-03-04T08:32:53.204Z,94.94
2023-03-04T08:33:53.209Z,95.04
2023-03-04T08:34:53.145Z,95.25
2023-03-04T08:35:53.139Z,95.04
2023-03-04T08:36:53.104Z,94.94
2023-03-04T08:37:53.104Z,95.21
2023-03-04T08:38:53.091Z,95.15
2023-03-04T08:39:53.105Z,95.36
2023-03-04T08:40:53.062Z,95.56
2023-03-04T08:41:53.052Z,95.77
2023-03-04T08:42:53.036Z,95.98
2023-03-04T08:43:53.030Z,96.29
2023-03-04T08:44:53.021Z,96.19
2023-03-04T08:45:53.031Z,96.39
2023-03-04T08:46:52.991Z,96.59
2023-03-04T08:47:52.989Z,96.91
2023-03-04T08:48:52.968Z,97.11
2023-03-04T08:49:52.960Z,97.07
2023-03-04T08:50:52.954Z,97.28
2023-03-04T08:51:52.988Z,97.17
2023-03-04T08:52:52.924Z,97.01
2023-03-04T08:53:52.928Z,97.49
2023-03-04T08:54:52.901Z,97.38
2023-03-04T08:55:52.905Z,97.38
2023-03-04T08:56:52.886Z,97.28
2023-03-04T08:57:52.894Z,97.38
2023-03-04T08:58:52.850Z,97.28
2023-03-04T08:59:52.860Z,97.17
2023-03-04T09:00:52.832Z,97.13
2023-03-04T09:01:52.879Z,96.92
2023-03-04T09:02:52.858Z,96.92
2023-03-04T09:03:52.932Z,96.30
2023-03-04T09:04:52.789Z,96.26
2023-03-04T09:05:52.785Z,96.05
2023-03-04T09:06:54.008Z,95.53
2023-03-04T09:07:52.762Z,95.32
2023-03-04T09:08:52.772Z,94.77
2023-03-04T09:09:52.767Z,94.56
2023-03-04T09:10:52.725Z,94.35
2023-03-04T09:11:52.748Z,94.15
2023-03-04T09:12:52.702Z,93.84
2023-03-04T09:13:52.729Z,93.94
2023-03-04T09:15:04.786Z,94.04
2023-03-04T09:15:52.686Z,93.84
2023-03-04T09:16:52.658Z,93.84
2023-03-04T09:17:52.652Z,93.73
2023-03-04T09:18:52.639Z,93.53
2023-03-04T09:19:53.000Z,93.94
2023-03-04T09:20:52.633Z,94.04
2023-03-04T09:21:52.606Z,94.15
2023-03-04T09:22:52.589Z,94.67
2023-03-04T09:23:52.588Z,94.77
2023-03-04T09:24:52.563Z,94.87
2023-03-04T09:25:52.589Z,94.77
2023-03-04T09:26:52.569Z,95.18
2023-03-04T09:27:52.532Z,95.18
2023-03-04T09:28:52.558Z,94.97
2023-03-04T09:29:52.527Z,94.97
2023-03-04T09:30:52.500Z,95.32
2023-03-04T09:31:52.519Z,95.43
2023-03-04T09:32:52.477Z,95.64
2023-03-04T09:33:52.471Z,96.05
2023-03-04T09:34:52.451Z,96.11
2023-03-04T09:35:52.523Z,96.31
2023-03-04T09:36:52.460Z,96.21
2023-03-04T09:37:52.426Z,95.80
2023-03-04T09:38:52.413Z,95.90
2023-03-04T09:39:52.407Z,96.01
2023-03-04T09:40:52.387Z,95.90
2023-03-04T09:41:52.383Z,95.90
2023-03-04T09:42:52.420Z,95.80
2023-03-04T09:43:52.356Z,95.49
2023-03-04T09:44:52.372Z,94.97
2023-03-04T09:45:52.345Z,94.67
2023-03-04T09:46:52.367Z,94.56
2023-03-04T09:47:52.314Z,94.46
2023-03-04T09:48:52.344Z,94.46
2023-03-04T09:49:52.286Z,94.56
2023-03-04T09:50:52.287Z,94.35
2023-03-04T09:51:52.270Z,94.35
2023-03-04T09:52:52.268Z,94.56
2023-03-04T09:53:52.257Z,94.77
2023-03-04T09:54:52.269Z,94.87
2023-03-04T09:55:52.222Z,94.82
2023-03-04T09:56:52.198Z,94.62
2023-03-04T09:57:52.202Z,94.27
2023-03-04T09:58:52.180Z,94.06
2023-03-04T09:59:52.166Z,93.71
2023-03-04T10:00:52.216Z,93.50
2023-03-04T10:01:52.147Z,93.30
2023-03-04T10:02:52.143Z,92.99
2023-03-04T10:03:52.263Z,92.84
2023-03-04T10:04:52.156Z,92.63
2023-03-04T10:05:52.117Z,92.63
2023-03-04T10:06:52.096Z,92.43
2023-03-04T10:07:52.081Z,91.96
2023-03-04T10:08:52.109Z,92.16
2023-03-04T10:09:52.062Z,92.43
2023-03-04T10:10:52.119Z,92.43
2023-03-04T10:11:52.028Z,92.63
2023-03-04T10:12:52.021Z,92.33
2023-03-04T10:13:52.025Z,92.22
2023-03-04T10:14:52.006Z,92.18
2023-03-04T10:15:52.044Z,92.29
2023-03-04T10:16:52.018Z,92.49
2023-03-04T10:17:51.977Z,92.33
2023-03-04T10:18:51.957Z,92.43
2023-03-04T10:19:51.944Z,92.49
2023-03-04T10:20:51.930Z,91.97
2023-03-04T10:21:51.933Z,91.46
2023-03-04T10:22:51.909Z,91.46
2023-03-04T10:23:51.901Z,90.73
2023-03-04T10:24:51.897Z,90.47
2023-03-04T10:25:51.873Z,90.53
2023-03-04T10:26:51.882Z,90.22
2023-03-04T10:27:51.841Z,90.01
2023-03-04T10:28:51.843Z,89.91
2023-03-04T10:29:51.850Z,89.91
2023-03-04T10:30:51.838Z,89.50
2023-03-04T10:31:51.996Z,89.19
2023-03-04T10:32:51.790Z,89.19
2023-03-04T10:33:51.771Z,89.50
2023-03-04T10:34:51.769Z,89.09
2023-03-04T10:35:51.805Z,89.29
2023-03-04T10:36:51.768Z,89.71
2023-03-04T10:37:51.740Z,89.67
2023-03-04T10:38:51.719Z,89.81
2023-03-04T10:39:51.706Z,90.22
2023-03-04T10:40:51.718Z,90.64
2023-03-04T10:41:51.786Z,90.94
2023-03-04T10:42:51.694Z,91.31
2023-03-04T10:43:51.663Z,91.15
2023-03-04T10:44:51.643Z,91.77
2023-03-04T10:45:51.722Z,92.18
2023-03-04T10:46:51.627Z,92.29
2023-03-04T10:47:51.626Z,92.69
2023-03-04T10:48:51.606Z,92.80
2023-03-04T10:49:51.578Z,92.80
2023-03-04T10:50:51.582Z,92.80
2023-03-04T10:51:51.567Z,93.25
2023-03-04T10:52:51.583Z,93.56
2023-03-04T10:53:51.560Z,93.87
2023-03-04T10:54:51.535Z,94.18
2023-03-04T10:55:51.514Z,94.28
2023-03-04T10:56:51.512Z,94.38
2023-03-04T10:57:51.530Z,94.38
2023-03-04T10:58:51.484Z,94.38
2023-03-04T10:59:51.474Z,94.08
2023-03-04T11:00:51.525Z,94.18
2023-03-04T11:01:51.443Z,94.08
2023-03-04T11:02:51.445Z,94.08
2023-03-04T11:03:51.466Z,94.03
2023-03-04T11:04:51.410Z,94.13
2023-03-04T11:05:51.440Z,94.09
2023-03-04T11:06:51.406Z,93.88
2023-03-04T11:07:56.701Z,93.41
2023-03-04T11:08:51.375Z,93.21
2023-03-04T11:09:51.363Z,93.31
2023-03-04T11:10:51.377Z,93.01
2023-03-04T11:11:51.340Z,92.80
2023-03-04T11:12:51.329Z,92.49
2023-03-04T11:13:51.304Z,92.53
2023-03-04T11:14:51.295Z,92.84
2023-03-04T11:15:51.309Z,93.25
2023-03-04T11:16:51.318Z,93.15
2023-03-04T11:17:51.256Z,93.35
2023-03-04T11:18:51.256Z,93.66
2023-03-04T11:19:51.263Z,93.35
2023-03-04T11:20:51.252Z,93.56
2023-03-04T11:21:51.211Z,93.77
2023-03-04T11:22:51.226Z,93.87
2023-03-04T11:23:51.190Z,94.18
2023-03-04T11:24:51.203Z,94.12
2023-03-04T11:25:51.171Z,94.32
2023-03-04T11:26:51.154Z,94.43
2023-03-04T11:27:51.140Z,94.74
2023-03-04T11:28:51.146Z,95.05
2023-03-04T11:29:51.136Z,95.15
2023-03-04T11:30:51.105Z,94.99
2023-03-04T11:31:51.170Z,94.89
2023-03-04T11:32:51.148Z,94.89
2023-03-04T11:33:51.075Z,95.09
2023-03-04T11:34:51.084Z,95.40
2023-03-04T11:35:51.165Z,95.40
2023-03-04T11:36:51.046Z,95.40
2023-03-04T11:37:51.034Z,95.36
2023-03-04T11:38:51.026Z,95.05
2023-03-04T11:39:51.053Z,94.68
2023-03-04T11:40:51.009Z,94.47
2023-03-04T11:41:50.989Z,93.96
2023-03-04T11:42:51.006Z,94.06
2023-03-04T11:43:51.018Z,94.06
2023-03-04T11:44:50.993Z,94.27
2023-03-04T11:45:50.989Z,93.85
2023-03-04T11:46:50.963Z,93.75
2023-03-04T11:47:50.941Z,93.60
2023-03-04T11:48:50.945Z,93.30
2023-03-04T11:49:50.957Z,92.99
2023-03-04T11:50:50.909Z,92.43
2023-03-04T11:51:50.919Z,92.12
2023-03-04T11:52:50.892Z,91.85
2023-03-04T11:53:50.873Z,92.22
2023-03-04T11:54:50.892Z,92.53
2023-03-04T11:55:50.867Z,92.02
2023-03-04T11:56:50.856Z,90.67
2023-03-04T11:57:50.841Z,90.26
2023-03-04T11:58:50.823Z,89.75
2023-03-04T11:59:50.830Z,89.81
2023-03-04T12:00:50.797Z,89.61
2023-03-04T12:01:50.785Z,89.50
2023-03-04T12:02:50.800Z,89.36
2023-03-04T12:03:50.930Z,89.36
2023-03-04T12:04:50.822Z,89.31
2023-03-04T12:05:50.748Z,88.12
2023-03-04T12:06:50.749Z,87.40
2023-03-04T12:07:50.716Z,87.19
2023-03-04T12:08:50.710Z,86.88
2023-03-04T12:09:50.721Z,86.37
2023-03-04T12:10:50.686Z,86.37
2023-03-04T12:11:51.035Z,86.23
2023-03-04T12:12:50.690Z,85.75
2023-03-04T12:13:50.644Z,85.82
2023-03-04T12:14:50.663Z,85.71
2023-03-04T12:15:50.658Z,85.61
2023-03-04T12:16:50.623Z,85.51
2023-03-04T12:17:50.604Z,85.71
2023-03-04T12:18:50.591Z,85.57
2023-03-04T12:19:50.619Z,85.47
2023-03-04T12:20:50.574Z,84.95
2023-03-04T12:21:50.555Z,85.26
2023-03-04T12:22:50.562Z,84.54
2023-03-04T12:23:50.557Z,84.81
2023-03-04T12:24:50.553Z,84.09
2023-03-04T12:25:50.507Z,84.09
2023-03-04T12:26:50.503Z,84.47
2023-03-04T12:27:50.494Z,84.32
2023-03-04T12:28:50.478Z,83.81
2023-03-04T12:29:50.492Z,83.29
2023-03-04T12:30:50.506Z,83.19
2023-03-04T12:31:50.443Z,83.13
2023-03-04T12:32:50.457Z,83.23
2023-03-04T12:33:50.451Z,82.71
2023-03-04T12:34:50.440Z,83.13
2023-03-04T12:35:50.413Z,83.78
2023-03-04T12:36:50.394Z,84.36
2023-03-04T12:37:50.373Z,84.36
2023-03-04T12:38:50.366Z,84.36
2023-03-04T12:39:50.369Z,84.36
2023-03-04T12:40:50.353Z,84.16
2023-03-04T12:41:50.328Z,84.32
2023-03-04T12:42:50.315Z,84.12
2023-03-04T12:43:50.306Z,83.40
2023-03-04T12:44:50.326Z,82.20
2023-03-04T12:45:50.280Z,82.00
2023-03-04T12:46:50.283Z,81.96
2023-03-04T12:47:50.262Z,81.96
2023-03-04T12:48:50.265Z,81.51
2023-03-04T12:49:50.237Z,82.13
2023-03-04T12:50:50.279Z,81.27
2023-03-04T12:51:50.217Z,80.14
2023-03-04T12:52:50.215Z,79.77